createdAt,value
2023-04-24T00:00:16.659Z,2.27
2023-04-24T00:02:47.701Z,3.37
2023-04-24T00:05:16.426Z,2.10
2023-04-24T00:07:46.816Z,2.80
2023-04-24T00:10:14.884Z,2.53
2023-04-24T00:12:42.777Z,2.50
2023-04-24T00:15:11.840Z,4.40
2023-04-24T00:17:39.991Z,2.03
2023-04-24T00:20:08.891Z,1.90
2023-04-24T00:22:36.709Z,2.20
2023-04-24T00:25:06.830Z,2.70
2023-04-24T00:27:36.095Z,2.63
2023-04-24T00:30:04.531Z,2.67
2023-04-24T00:32:32.580Z,2.63
2023-04-24T00:35:00.424Z,2.67
2023-04-24T00:37:28.282Z,2.90
2023-04-24T00:39:56.222Z,3.20
2023-04-24T00:42:25.638Z,2.60
2023-04-24T00:44:53.917Z,5.67
2023-04-24T00:47:22.961Z,2.30
2023-04-24T00:49:50.856Z,2.87
2023-04-24T00:52:19.541Z,2.87
2023-04-24T00:54:47.429Z,2.80
2023-04-24T00:57:15.801Z,4.90
2023-04-24T00:59:45.988Z,3.17
2023-04-24T01:02:14.704Z,2.80
2023-04-24T01:04:42.754Z,3.10
2023-04-24T01:07:12.381Z,2.63
2023-04-24T01:09:42.956Z,3.70
2023-04-24T01:12:11.084Z,3.17
2023-04-24T01:14:39.622Z,2.50
2023-04-24T01:17:10.169Z,3.10
2023-04-24T01:19:38.144Z,3.97
2023-04-24T01:22:12.681Z,2.50
2023-04-24T01:24:40.796Z,2.90
2023-04-24T01:27:08.845Z,2.30
2023-04-24T01:29:37.326Z,2.60
2023-04-24T01:32:05.660Z,3.40
2023-04-24T01:34:33.900Z,2.10
2023-04-24T01:37:02.052Z,2.20
2023-04-24T01:39:31.305Z,3.23
2023-04-24T01:41:59.170Z,4.23
2023-04-24T01:44:27.393Z,3.17
2023-04-24T01:46:56.513Z,2.37
2023-04-24T01:49:24.452Z,2.03
2023-04-24T01:51:52.295Z,2.60
2023-04-24T01:54:20.566Z,2.40
2023-04-24T01:56:49.822Z,3.17
2023-04-24T01:59:19.042Z,1.90
2023-04-24T02:01:46.926Z,3.70
2023-04-24T02:04:16.391Z,3.60
2023-04-24T02:06:44.353Z,2.00
2023-04-24T02:09:12.751Z,2.37
2023-04-24T02:11:40.646Z,2.70
2023-04-24T02:14:09.863Z,4.80
2023-04-24T02:16:37.752Z,5.47
2023-04-24T02:19:06.075Z,1.73
2023-04-24T02:21:34.022Z,1.60
2023-04-24T02:24:01.945Z,1.60
2023-04-24T02:26:29.791Z,2.33
2023-04-24T02:28:57.658Z,2.70
2023-04-24T02:31:26.893Z,2.27
2023-04-24T02:33:54.759Z,1.50
2023-04-24T02:36:22.722Z,1.37
2023-04-24T02:38:50.613Z,1.97
2023-04-24T02:41:18.520Z,3.40
2023-04-24T02:43:46.346Z,1.03
2023-04-24T02:46:14.273Z,1.20
2023-04-24T02:48:43.466Z,1.30
2023-04-24T02:51:11.452Z,3.93
2023-04-24T02:53:39.348Z,3.23
2023-04-24T02:56:07.273Z,1.83
2023-04-24T02:58:35.092Z,1.50
2023-04-24T03:01:02.913Z,0.87
2023-04-24T03:03:31.362Z,7.03
2023-04-24T03:06:00.812Z,0.97
2023-04-24T03:08:28.636Z,1.13
2023-04-24T03:10:56.441Z,1.70
2023-04-24T03:13:24.365Z,1.73
2023-04-24T03:15:53.874Z,1.30
2023-04-24T03:18:21.833Z,1.13
2023-04-24T03:20:49.942Z,3.43
2023-04-24T03:23:19.124Z,1.70
2023-04-24T03:25:47.111Z,1.50
2023-04-24T03:28:14.948Z,1.33
2023-04-24T03:30:42.890Z,6.70
2023-04-24T03:33:10.877Z,2.57
2023-04-24T03:35:38.714Z,1.17
2023-04-24T03:38:06.576Z,1.13
2023-04-24T03:40:36.734Z,1.03
2023-04-24T03:43:04.569Z,0.93
2023-04-24T03:45:32.399Z,1.03
2023-04-24T03:48:00.363Z,2.83
2023-04-24T03:50:30.109Z,1.43
2023-04-24T03:52:57.975Z,1.83
2023-04-24T03:55:25.844Z,1.20
2023-04-24T03:57:55.017Z,1.90
2023-04-24T04:00:23.067Z,3.20
2023-04-24T04:02:51.062Z,4.83
2023-04-24T04:05:19.153Z,1.40
2023-04-24T04:07:47.095Z,1.30
2023-04-24T04:10:15.301Z,1.60
2023-04-24T04:12:43.125Z,1.23
2023-04-24T04:15:12.788Z,1.23
2023-04-24T04:17:40.735Z,1.40
2023-04-24T04:20:10.353Z,0.97
2023-04-24T04:22:38.533Z,2.20
2023-04-24T04:25:07.542Z,1.20
2023-04-24T04:27:35.534Z,1.40
2023-04-24T04:30:05.736Z,1.60
2023-04-24T04:32:35.566Z,3.50
2023-04-24T04:35:04.575Z,1.00
2023-04-24T04:37:32.710Z,1.93
2023-04-24T04:40:00.858Z,3.93
2023-04-24T04:42:29.324Z,1.40
2023-04-24T04:44:58.512Z,1.80
2023-04-24T04:47:27.594Z,2.40
2023-04-24T04:49:56.964Z,1.50
2023-04-24T04:52:26.802Z,2.40
2023-04-24T04:54:54.674Z,2.13
2023-04-24T04:57:22.644Z,2.30
2023-04-24T04:59:50.499Z,3.43
2023-04-24T05:02:18.563Z,1.43
2023-04-24T05:04:47.210Z,1.30
2023-04-24T05:07:16.595Z,3.53
2023-04-24T05:09:45.890Z,1.37
2023-04-24T05:12:13.775Z,0.90
2023-04-24T05:14:41.610Z,2.67
2023-04-24T05:17:09.551Z,1.53
2023-04-24T05:19:39.049Z,3.77
2023-04-24T05:22:07.832Z,0.97
2023-04-24T05:24:37.281Z,1.20
2023-04-24T05:27:06.806Z,1.00
2023-04-24T05:29:34.950Z,2.13
2023-04-24T05:32:03.141Z,1.00
2023-04-24T05:34:31.122Z,1.33
2023-04-24T05:36:58.953Z,1.20
2023-04-24T05:39:27.065Z,1.00
2023-04-24T05:41:58.879Z,4.20
2023-04-24T05:44:26.921Z,1.13
2023-04-24T05:46:56.378Z,1.80
2023-04-24T05:49:24.392Z,1.40
2023-04-24T05:51:52.257Z,1.03
2023-04-24T05:54:20.148Z,0.63
2023-04-24T05:56:48.036Z,0.60
2023-04-24T05:59:17.256Z,0.73
2023-04-24T06:01:45.721Z,1.13
2023-04-24T06:04:15.920Z,1.10
2023-04-24T06:06:43.937Z,1.40
2023-04-24T06:09:12.960Z,0.97
2023-04-24T06:11:40.794Z,1.90
2023-04-24T06:14:08.617Z,1.80
2023-04-24T06:16:37.887Z,1.17
2023-04-24T06:19:05.938Z,1.60
2023-04-24T06:21:33.728Z,1.90
2023-04-24T06:24:01.604Z,2.13
2023-04-24T06:26:29.906Z,1.67
2023-04-24T06:28:59.500Z,6.47
2023-04-24T06:31:27.517Z,2.40
2023-04-24T06:33:56.703Z,1.50
2023-04-24T06:36:24.588Z,2.57
2023-04-24T06:38:52.504Z,1.20
2023-04-24T06:41:20.414Z,0.97
2023-04-24T06:43:48.218Z,1.27
2023-04-24T06:46:16.141Z,1.07
2023-04-24T06:48:43.974Z,1.27
2023-04-24T06:51:13.132Z,1.67
2023-04-24T06:53:40.983Z,3.23
2023-04-24T06:56:09.109Z,1.00
2023-04-24T06:58:36.995Z,1.40
2023-04-24T07:01:04.988Z,1.13
2023-04-24T07:03:32.975Z,1.37
2023-04-24T07:06:01.389Z,3.67
2023-04-24T07:08:31.450Z,1.50
2023-04-24T07:10:59.659Z,1.73
2023-04-24T07:13:28.197Z,1.20
2023-04-24T07:15:57.268Z,2.53
2023-04-24T07:18:25.350Z,2.07
2023-04-24T07:20:53.263Z,3.50
2023-04-24T07:23:22.330Z,1.17
2023-04-24T07:25:51.840Z,1.33
2023-04-24T07:28:19.826Z,1.80
2023-04-24T07:30:47.662Z,2.00
2023-04-24T07:33:15.651Z,2.00
2023-04-24T07:35:43.581Z,1.77
2023-04-24T07:38:11.437Z,2.93
2023-04-24T07:40:39.462Z,1.73
2023-04-24T07:43:08.655Z,1.90
2023-04-24T07:45:38.591Z,2.13
2023-04-24T07:48:06.826Z,2.47
2023-04-24T07:50:35.745Z,2.07
2023-04-24T07:53:03.720Z,1.57
2023-04-24T07:55:31.574Z,4.97
2023-04-24T07:57:59.397Z,1.87
2023-04-24T08:00:28.584Z,1.40
2023-04-24T08:02:56.508Z,3.63
2023-04-24T08:05:26.701Z,6.03
2023-04-24T08:07:55.418Z,2.60
2023-04-24T08:10:23.895Z,1.80
2023-04-24T08:12:51.744Z,1.80
2023-04-24T08:15:20.080Z,1.77
2023-04-24T08:17:49.310Z,1.47
2023-04-24T08:20:17.214Z,2.00
2023-04-24T08:22:45.681Z,1.47
2023-04-24T08:25:13.504Z,1.93
2023-04-24T08:27:41.370Z,1.83
2023-04-24T08:30:10.256Z,2.43
2023-04-24T08:32:38.763Z,1.93
2023-04-24T08:35:10.169Z,1.80
2023-04-24T08:37:38.534Z,1.77
2023-04-24T08:40:13.855Z,2.00
2023-04-24T08:42:44.036Z,1.40
2023-04-24T08:45:13.565Z,3.00
2023-04-24T08:47:42.613Z,1.00
2023-04-24T08:50:13.585Z,1.70
2023-04-24T08:52:41.582Z,1.70
2023-04-24T08:55:10.070Z,3.00
2023-04-24T08:57:40.987Z,1.70
2023-04-24T09:00:11.949Z,1.50
2023-04-24T09:02:44.430Z,2.67
2023-04-24T09:05:16.038Z,1.60
2023-04-24T09:07:47.388Z,2.40
2023-04-24T09:10:15.824Z,1.80
2023-04-24T09:12:44.120Z,1.70
2023-04-24T09:15:13.141Z,1.40
2023-04-24T09:17:41.415Z,1.93
2023-04-24T09:20:10.505Z,4.73
2023-04-24T09:22:40.467Z,2.47
2023-04-24T09:25:10.316Z,2.10
2023-04-24T09:27:38.512Z,1.53
2023-04-24T09:30:08.502Z,2.07
2023-04-24T09:32:36.435Z,2.97
2023-04-24T09:35:08.973Z,2.07
2023-04-24T09:37:43.391Z,1.70
2023-04-24T09:40:13.545Z,2.00
2023-04-24T09:42:41.685Z,1.90
2023-04-24T09:45:15.607Z,2.17
2023-04-24T09:47:44.774Z,2.13
2023-04-24T09:50:15.666Z,3.00
2023-04-24T09:52:47.647Z,2.97
2023-04-24T09:55:21.256Z,2.30
2023-04-24T09:57:50.825Z,3.77
2023-04-24T10:00:24.327Z,1.90
2023-04-24T10:02:54.167Z,1.67
2023-04-24T10:05:25.991Z,2.00
2023-04-24T10:07:59.185Z,2.37
2023-04-24T10:10:27.664Z,2.27
2023-04-24T10:12:56.624Z,2.43
2023-04-24T10:15:24.577Z,2.27
2023-04-24T10:17:54.358Z,5.00
2023-04-24T10:20:23.787Z,1.90
2023-04-24T10:22:53.388Z,2.87
2023-04-24T10:25:24.339Z,2.53
2023-04-24T10:27:53.790Z,2.50
2023-04-24T10:30:22.546Z,1.90
2023-04-24T10:32:50.714Z,4.83
2023-04-24T10:35:23.163Z,1.70
2023-04-24T10:37:52.874Z,2.60
2023-04-24T10:40:28.252Z,2.40
2023-04-24T10:42:58.589Z,1.97
2023-04-24T10:45:27.003Z,2.23
2023-04-24T10:47:58.584Z,2.20
2023-04-24T10:50:28.445Z,2.20
2023-04-24T10:53:06.530Z,2.73
2023-04-24T10:55:46.617Z,2.33
2023-04-24T10:58:15.806Z,2.77
2023-04-24T11:00:45.685Z,2.00
2023-04-24T11:03:28.165Z,2.40
2023-04-24T11:05:59.688Z,4.50
2023-04-24T11:08:30.063Z,2.73
2023-04-24T11:11:04.687Z,2.37
2023-04-24T11:14:04.476Z,2.40
2023-04-24T11:16:35.040Z,3.83
2023-04-24T11:19:05.277Z,2.70
2023-04-24T11:21:34.028Z,2.83
2023-04-24T11:24:31.768Z,2.33
2023-04-24T11:27:06.922Z,2.73
2023-04-24T11:29:42.777Z,2.80
2023-04-24T11:32:24.985Z,2.23
2023-04-24T11:34:54.581Z,4.73
2023-04-24T11:37:23.487Z,1.63
2023-04-24T11:39:53.720Z,2.23
2023-04-24T11:42:24.031Z,2.33
2023-04-24T11:44:53.727Z,1.93
2023-04-24T11:47:21.706Z,1.63
2023-04-24T11:49:52.583Z,3.40
2023-04-24T11:52:21.186Z,1.80
2023-04-24T11:54:51.096Z,1.70
2023-04-24T11:57:23.556Z,1.93
2023-04-24T11:59:51.664Z,1.70
2023-04-24T12:02:23.879Z,2.07
2023-04-24T12:04:52.461Z,1.70
2023-04-24T12:07:20.896Z,1.87
2023-04-24T12:09:52.058Z,2.40
2023-04-24T12:12:20.777Z,1.30
2023-04-24T12:14:55.681Z,1.60
2023-04-24T12:17:28.998Z,1.90
2023-04-24T12:20:01.276Z,2.10
2023-04-24T12:22:29.174Z,1.83
2023-04-24T12:25:01.661Z,3.40
2023-04-24T12:27:33.070Z,2.23
2023-04-24T12:30:07.969Z,3.30
2023-04-24T12:32:35.822Z,2.57
2023-04-24T12:35:07.146Z,4.33
2023-04-24T12:37:37.397Z,2.50
2023-04-24T12:40:08.045Z,3.23
2023-04-24T12:42:36.894Z,2.30
2023-04-24T12:45:09.002Z,6.93
2023-04-24T12:47:37.682Z,2.30
2023-04-24T12:50:07.066Z,3.03
2023-04-24T12:52:35.234Z,5.27
2023-04-24T12:55:03.819Z,1.70
2023-04-24T12:57:32.639Z,2.20
2023-04-24T13:00:01.028Z,1.47
2023-04-24T13:02:32.089Z,2.30
2023-04-24T13:05:01.019Z,1.17
2023-04-24T13:07:29.876Z,1.57
2023-04-24T13:09:58.501Z,1.60
2023-04-24T13:12:27.343Z,1.40
2023-04-24T13:14:55.693Z,1.50
2023-04-24T13:17:24.023Z,1.97
2023-04-24T13:19:56.013Z,1.70
2023-04-24T13:22:23.959Z,1.07
2023-04-24T13:24:51.872Z,1.60
2023-04-24T13:27:20.119Z,3.23
2023-04-24T13:29:48.068Z,1.07
2023-04-24T13:32:16.167Z,1.17
2023-04-24T13:34:44.599Z,1.47
2023-04-24T13:37:14.020Z,2.77
2023-04-24T13:39:42.781Z,1.30
2023-04-24T13:42:10.669Z,1.10
2023-04-24T13:44:38.701Z,0.93
2023-04-24T13:47:06.746Z,0.70
2023-04-24T13:49:34.588Z,1.17
2023-04-24T13:52:02.464Z,0.70
2023-04-24T13:54:31.978Z,0.80
2023-04-24T13:57:00.218Z,2.20
2023-04-24T13:59:28.184Z,3.20
2023-04-24T14:01:56.222Z,2.10
2023-04-24T14:04:24.332Z,1.20
2023-04-24T14:06:52.371Z,2.57
2023-04-24T14:09:20.229Z,0.90
2023-04-24T14:11:49.387Z,0.97
2023-04-24T14:14:17.232Z,1.23
2023-04-24T14:16:45.074Z,1.73
2023-04-24T14:19:12.885Z,1.63
2023-04-24T14:21:41.110Z,1.20
2023-04-24T14:24:10.099Z,1.40
2023-04-24T14:26:38.172Z,0.90
2023-04-24T14:29:14.885Z,1.20
2023-04-24T14:31:43.740Z,1.20
2023-04-24T14:34:12.076Z,1.10
2023-04-24T14:36:39.919Z,0.93
2023-04-24T14:39:08.662Z,0.80
2023-04-24T14:41:38.166Z,1.37
2023-04-24T14:44:07.411Z,1.30
2023-04-24T14:46:35.333Z,1.60
2023-04-24T14:49:03.416Z,1.43
2023-04-24T14:51:31.402Z,11.43
2023-04-24T14:54:00.583Z,11.47
2023-04-24T14:56:28.439Z,3.50
2023-04-24T14:58:56.861Z,1.40
2023-04-24T15:01:26.341Z,1.77
2023-04-24T15:03:54.755Z,2.30
2023-04-24T15:06:23.047Z,2.30
2023-04-24T15:08:51.176Z,2.60
2023-04-24T15:11:19.296Z,3.70
2023-04-24T15:13:47.523Z,7.33
2023-04-24T15:16:15.785Z,2.30
2023-04-24T15:18:45.519Z,3.47
2023-04-24T15:21:14.139Z,6.73
2023-04-24T15:23:41.976Z,3.43
2023-04-24T15:26:09.817Z,4.50
2023-04-24T15:28:37.655Z,2.70
2023-04-24T15:31:05.544Z,3.00
2023-04-24T15:33:33.381Z,3.03
2023-04-24T15:36:02.649Z,3.60
2023-04-24T15:38:30.547Z,3.07
2023-04-24T15:40:58.432Z,3.97
2023-04-24T15:43:26.312Z,2.57
2023-04-24T15:45:54.194Z,2.27
2023-04-24T15:48:22.105Z,2.80
2023-04-24T15:50:49.987Z,2.33
2023-04-24T15:53:22.467Z,2.10
2023-04-24T15:55:50.685Z,2.90
2023-04-24T15:58:19.232Z,2.60
2023-04-24T16:00:47.455Z,2.80
2023-04-24T16:03:15.589Z,3.70
2023-04-24T16:05:43.529Z,4.20
2023-04-24T16:08:11.592Z,2.83
2023-04-24T16:10:40.869Z,3.00
2023-04-24T16:13:08.768Z,3.33
2023-04-24T16:15:37.389Z,3.00
2023-04-24T16:18:05.429Z,3.17
2023-04-24T16:20:33.324Z,3.00
2023-04-24T16:23:01.196Z,4.90
2023-04-24T16:25:29.153Z,2.73
2023-04-24T16:27:58.360Z,3.43
2023-04-24T16:30:26.702Z,4.63
2023-04-24T16:32:54.572Z,5.00
2023-04-24T16:35:22.426Z,3.43
2023-04-24T16:37:50.347Z,3.80
2023-04-24T16:40:18.206Z,4.30
2023-04-24T16:42:46.040Z,3.80
2023-04-24T16:45:15.220Z,4.43
2023-04-24T16:47:44.187Z,3.53
2023-04-24T16:50:12.816Z,5.80
2023-04-24T16:52:40.813Z,5.13
2023-04-24T16:55:09.849Z,4.43
2023-04-24T16:57:38.002Z,4.93
2023-04-24T17:00:07.976Z,5.47
2023-04-24T17:02:37.338Z,3.70
2023-04-24T17:05:05.727Z,4.00
2023-04-24T17:07:33.680Z,4.90
2023-04-24T17:10:01.653Z,3.73
2023-04-24T17:12:29.484Z,5.07
2023-04-24T17:14:57.308Z,5.70
2023-04-24T17:17:25.541Z,4.17
2023-04-24T17:19:54.738Z,4.67
2023-04-24T17:22:22.623Z,3.03
2023-04-24T17:24:50.533Z,7.03
2023-04-24T17:27:18.424Z,12.33
2023-04-24T17:29:46.339Z,10.40
2023-04-24T17:32:14.173Z,4.90
2023-04-24T17:34:42.100Z,4.17
2023-04-24T17:37:12.837Z,5.30
2023-04-24T17:39:40.677Z,4.90
2023-04-24T17:42:08.577Z,3.50
2023-04-24T17:44:36.449Z,3.50
2023-04-24T17:47:05.011Z,4.53
2023-04-24T17:49:33.053Z,3.90
2023-04-24T17:52:01.000Z,5.13
2023-04-24T17:54:30.236Z,4.43
2023-04-24T17:56:58.118Z,4.40
2023-04-24T17:59:26.472Z,4.47
2023-04-24T18:01:54.378Z,4.87
2023-04-24T18:04:22.388Z,5.23
2023-04-24T18:06:50.516Z,4.80
2023-04-24T18:09:20.769Z,5.10
2023-04-24T18:11:50.262Z,3.40
2023-04-24T18:14:18.177Z,2.80
2023-04-24T18:16:46.014Z,3.07
2023-04-24T18:19:13.813Z,3.60
2023-04-24T18:21:41.822Z,5.50
2023-04-24T18:24:09.693Z,5.20
2023-04-24T18:26:37.533Z,3.80
2023-04-24T18:29:06.944Z,4.73
2023-04-24T18:31:34.992Z,6.90
2023-04-24T18:34:02.933Z,9.73
2023-04-24T18:36:30.744Z,6.37
2023-04-24T18:38:58.595Z,4.80
2023-04-24T18:41:26.423Z,3.90
2023-04-24T18:43:57.925Z,5.57
2023-04-24T18:46:27.187Z,5.10
2023-04-24T18:48:55.091Z,4.47
2023-04-24T18:51:23.395Z,4.53
2023-04-24T18:53:51.227Z,4.73
2023-04-24T18:56:19.838Z,3.63
2023-04-24T18:58:47.802Z,3.53
2023-04-24T19:01:16.266Z,3.87
2023-04-24T19:03:45.954Z,3.70
2023-04-24T19:06:13.873Z,3.73
2023-04-24T19:08:43.122Z,3.17
2023-04-24T19:11:11.111Z,3.10
2023-04-24T19:13:39.019Z,3.20
2023-04-24T19:16:06.935Z,3.53
2023-04-24T19:18:34.828Z,4.00
2023-04-24T19:21:04.055Z,4.63
2023-04-24T19:23:33.341Z,3.60
2023-04-24T19:26:01.197Z,6.77
2023-04-24T19:28:29.034Z,4.60
2023-04-24T19:30:58.658Z,3.90
2023-04-24T19:33:26.671Z,4.43
2023-04-24T19:35:54.644Z,3.60
2023-04-24T19:38:23.905Z,3.90
2023-04-24T19:40:51.771Z,3.53
2023-04-24T19:43:19.650Z,3.50
2023-04-24T19:45:47.612Z,4.30
2023-04-24T19:48:15.565Z,3.83
2023-04-24T19:50:44.444Z,3.20
2023-04-24T19:53:12.461Z,5.80
2023-04-24T19:55:41.654Z,4.20
2023-04-24T19:58:09.490Z,3.40
2023-04-24T20:00:37.310Z,3.30
2023-04-24T20:03:05.713Z,3.03
2023-04-24T20:05:33.663Z,3.40
2023-04-24T20:08:01.824Z,4.93
2023-04-24T20:10:29.844Z,5.00
2023-04-24T20:12:59.165Z,3.43
2023-04-24T20:15:26.999Z,3.73
2023-04-24T20:17:54.805Z,2.87
2023-04-24T20:20:23.232Z,3.37
2023-04-24T20:22:51.200Z,3.90
2023-04-24T20:25:19.157Z,3.40
2023-04-24T20:27:46.990Z,4.20
2023-04-24T20:30:16.743Z,9.10
2023-04-24T20:32:44.898Z,9.17
2023-04-24T20:35:13.004Z,8.40
2023-04-24T20:37:41.319Z,6.13
2023-04-24T20:40:10.087Z,6.30
2023-04-24T20:42:38.350Z,6.03
2023-04-24T20:45:07.746Z,5.20
2023-04-24T20:47:36.995Z,5.70
2023-04-24T20:50:06.323Z,5.57
2023-04-24T20:52:34.164Z,5.30
2023-04-24T20:55:02.108Z,4.40
2023-04-24T20:57:30.117Z,4.73
2023-04-24T20:59:57.989Z,4.17
2023-04-24T21:02:25.878Z,4.43
2023-04-24T21:04:55.431Z,5.00
2023-04-24T21:07:23.278Z,4.10
2023-04-24T21:09:51.675Z,3.57
2023-04-24T21:12:19.889Z,3.80
2023-04-24T21:14:49.212Z,4.33
2023-04-24T21:17:18.886Z,3.70
2023-04-24T21:19:46.800Z,4.13
2023-04-24T21:22:16.037Z,4.20
2023-04-24T21:24:43.857Z,4.40
2023-04-24T21:27:11.748Z,3.50
2023-04-24T21:29:39.582Z,4.43
2023-04-24T21:32:07.511Z,5.60
2023-04-24T21:34:35.460Z,4.90
2023-04-24T21:37:03.269Z,5.20
2023-04-24T21:39:32.473Z,5.80
2023-04-24T21:42:00.351Z,5.60
2023-04-24T21:44:28.171Z,6.50
2023-04-24T21:46:56.154Z,5.00
2023-04-24T21:49:24.019Z,6.03
2023-04-24T21:51:52.032Z,5.20
2023-04-24T21:54:20.713Z,5.63
2023-04-24T21:56:49.956Z,5.73
2023-04-24T21:59:17.996Z,5.50
2023-04-24T22:01:45.960Z,6.90
2023-04-24T22:04:13.974Z,6.80
2023-04-24T22:06:42.176Z,8.50
2023-04-24T22:09:10.032Z,7.40
2023-04-24T22:11:38.457Z,6.57
2023-04-24T22:14:07.641Z,6.73
2023-04-24T22:16:35.603Z,7.60
2023-04-24T22:19:04.901Z,6.13
2023-04-24T22:21:33.388Z,6.53
2023-04-24T22:24:01.809Z,6.20
2023-04-24T22:26:29.633Z,5.47
2023-04-24T22:28:57.513Z,6.10
2023-04-24T22:31:26.886Z,5.80
2023-04-24T22:33:55.184Z,5.43
2023-04-24T22:36:23.037Z,5.63
2023-04-24T22:38:51.617Z,4.63
2023-04-24T22:41:19.570Z,5.47
2023-04-24T22:43:47.818Z,5.23
2023-04-24T22:46:15.924Z,5.57
2023-04-24T22:48:45.710Z,6.20
2023-04-24T22:51:13.666Z,5.37
2023-04-24T22:53:41.559Z,5.53
2023-04-24T22:56:09.423Z,5.73
2023-04-24T22:58:37.276Z,5.40
2023-04-24T23:01:05.214Z,6.10
2023-04-24T23:03:35.681Z,6.00
2023-04-24T23:06:05.444Z,6.10
2023-04-24T23:08:33.312Z,7.03
2023-04-24T23:11:01.178Z,6.23
2023-04-24T23:13:29.050Z,5.70
2023-04-24T23:15:57.114Z,5.77
2023-04-24T23:18:24.971Z,5.17
2023-04-24T23:20:53.190Z,5.00
2023-04-24T23:23:22.370Z,4.57
2023-04-24T23:25:50.350Z,7.27
2023-04-24T23:28:18.266Z,6.40
2023-04-24T23:30:46.106Z,5.60
2023-04-24T23:33:14.014Z,5.80
2023-04-24T23:35:41.955Z,5.80
2023-04-24T23:38:09.813Z,6.23
2023-04-24T23:40:39.065Z,5.13
2023-04-24T23:43:08.369Z,4.93
2023-04-24T23:45:37.015Z,5.37
2023-04-24T23:48:05.942Z,5.57
2023-04-24T23:50:34.029Z,6.00
2023-04-24T23:53:01.992Z,5.60
2023-04-24T23:55:29.952Z,5.10
2023-04-24T23:57:59.185Z,5.33
